createdAt,value
2018-08-07T00:00:17.041Z,52.68
2018-08-07T00:02:51.356Z,52.55
2018-08-07T00:05:24.702Z,52.53
2018-08-07T00:07:58.047Z,52.76
2018-08-07T00:10:31.369Z,53.26
2018-08-07T00:13:04.793Z,52.96
2018-08-07T00:15:38.188Z,52.66
2018-08-07T00:18:11.537Z,53.01
2018-08-07T00:20:44.886Z,52.99
2018-08-07T00:23:18.233Z,53.19
2018-08-07T00:25:51.605Z,52.88
2018-08-07T00:28:24.937Z,52.58
2018-08-07T00:31:03.675Z,52.63
2018-08-07T00:33:37.047Z,52.79
2018-08-07T00:36:10.364Z,52.84
2018-08-07T00:38:43.691Z,52.97
2018-08-07T00:41:17.150Z,52.91
2018-08-07T00:43:50.481Z,52.37
2018-08-07T00:46:23.804Z,52.26
2018-08-07T00:48:57.138Z,52.61
2018-08-07T00:51:30.508Z,52.51
2018-08-07T00:54:03.859Z,52.65
2018-08-07T00:56:37.264Z,52.50
2018-08-07T00:59:10.581Z,52.66
2018-08-07T01:01:43.949Z,53.10
2018-08-07T01:04:17.248Z,52.94
2018-08-07T01:06:50.569Z,53.42
2018-08-07T01:09:23.871Z,53.51
2018-08-07T01:11:57.190Z,53.57
2018-08-07T01:14:30.558Z,54.25
2018-08-07T01:17:03.953Z,53.65
2018-08-07T01:19:37.356Z,53.87
2018-08-07T01:22:10.684Z,53.69
2018-08-07T01:24:44.021Z,54.30
2018-08-07T01:27:17.312Z,54.31
2018-08-07T01:29:50.632Z,53.59
2018-08-07T01:32:23.954Z,54.00
2018-08-07T01:34:57.271Z,53.73
2018-08-07T01:37:30.582Z,53.99
2018-08-07T01:40:04.143Z,54.08
2018-08-07T01:42:37.503Z,53.90
2018-08-07T01:45:11.257Z,54.00
2018-08-07T01:47:44.586Z,54.23
2018-08-07T01:50:17.933Z,54.10
2018-08-07T01:52:51.260Z,53.76
2018-08-07T01:55:26.281Z,53.83
2018-08-07T01:57:59.601Z,54.66
2018-08-07T02:00:32.932Z,54.48
2018-08-07T02:03:06.280Z,54.76
2018-08-07T02:05:40.706Z,55.01
2018-08-07T02:08:14.044Z,54.61
2018-08-07T02:10:47.377Z,54.82
2018-08-07T02:13:20.898Z,54.84
2018-08-07T02:15:54.264Z,54.33
2018-08-07T02:18:27.589Z,54.50
2018-08-07T02:21:00.957Z,54.39
2018-08-07T02:23:34.312Z,54.98
2018-08-07T02:26:07.801Z,55.73
2018-08-07T02:28:41.125Z,55.34
2018-08-07T02:31:14.465Z,55.99
2018-08-07T02:33:47.773Z,55.99
2018-08-07T02:36:21.158Z,55.81
2018-08-07T02:38:54.480Z,55.62
2018-08-07T02:41:27.840Z,56.37
2018-08-07T02:44:01.193Z,55.74
2018-08-07T02:46:34.566Z,55.57
2018-08-07T02:49:07.894Z,55.31
2018-08-07T02:51:41.253Z,55.55
2018-08-07T02:54:14.601Z,55.95
2018-08-07T02:56:47.929Z,55.77
2018-08-07T02:59:21.352Z,55.17
2018-08-07T03:01:54.780Z,56.35
2018-08-07T03:04:28.114Z,55.64
2018-08-07T03:07:01.487Z,56.41
2018-08-07T03:09:34.882Z,56.22
2018-08-07T03:12:08.261Z,56.50
2018-08-07T03:14:41.605Z,55.97
2018-08-07T03:17:15.001Z,56.35
2018-08-07T03:19:48.400Z,56.78
2018-08-07T03:22:21.812Z,56.67
2018-08-07T03:24:55.190Z,56.62
2018-08-07T03:27:28.609Z,56.31
2018-08-07T03:30:01.948Z,56.43
2018-08-07T03:32:35.301Z,57.07
2018-08-07T03:35:09.061Z,56.46
2018-08-07T03:37:42.780Z,56.81
2018-08-07T03:40:19.394Z,56.92
2018-08-07T03:42:52.725Z,57.04
2018-08-07T03:45:26.122Z,56.82
2018-08-07T03:47:59.465Z,57.21
2018-08-07T03:50:32.794Z,57.34
2018-08-07T03:53:06.391Z,57.69
2018-08-07T03:55:39.659Z,58.22
2018-08-07T03:58:13.007Z,57.58
2018-08-07T04:00:49.242Z,57.65
2018-08-07T04:03:22.569Z,57.41
2018-08-07T04:05:55.909Z,57.36
2018-08-07T04:08:29.272Z,57.88
2018-08-07T04:11:02.572Z,58.09
2018-08-07T04:13:36.004Z,57.84
2018-08-07T04:16:09.334Z,58.02
2018-08-07T04:18:42.719Z,57.84
2018-08-07T04:21:16.065Z,57.82
2018-08-07T04:23:49.441Z,57.82
2018-08-07T04:26:22.794Z,57.58
2018-08-07T04:28:56.131Z,58.03
2018-08-07T04:31:29.466Z,58.32
2018-08-07T04:34:02.842Z,57.99
2018-08-07T04:36:36.206Z,57.70
2018-08-07T04:39:11.820Z,58.77
2018-08-07T04:41:45.168Z,58.50
2018-08-07T04:44:18.523Z,58.46
2018-08-07T04:46:51.913Z,57.79
2018-08-07T04:49:25.323Z,57.96
2018-08-07T04:51:58.657Z,57.94
2018-08-07T04:54:31.998Z,57.60
2018-08-07T04:57:05.709Z,57.38
2018-08-07T04:59:39.060Z,56.94
2018-08-07T05:02:12.409Z,56.51
2018-08-07T05:04:45.718Z,56.66
2018-08-07T05:07:19.105Z,56.52
2018-08-07T05:09:52.414Z,56.84
2018-08-07T05:12:25.829Z,56.47
2018-08-07T05:14:59.135Z,55.63
2018-08-07T05:17:32.493Z,55.54
2018-08-07T05:20:05.876Z,55.27
2018-08-07T05:22:40.095Z,55.25
2018-08-07T05:25:13.819Z,55.60
2018-08-07T05:27:47.136Z,54.71
2018-08-07T05:30:20.441Z,54.36
2018-08-07T05:32:53.758Z,54.12
2018-08-07T05:35:27.108Z,53.66
2018-08-07T05:38:00.421Z,53.40
2018-08-07T05:40:33.732Z,52.46
2018-08-07T05:43:07.257Z,52.96
2018-08-07T05:45:40.560Z,52.09
2018-08-07T05:48:13.892Z,50.93
2018-08-07T05:50:47.688Z,51.44
2018-08-07T05:53:20.736Z,51.25
2018-08-07T05:55:54.028Z,50.24
2018-08-07T05:58:27.364Z,50.91
2018-08-07T06:01:00.712Z,51.66
2018-08-07T06:03:34.058Z,49.41
2018-08-07T06:06:07.422Z,49.23
2018-08-07T06:08:40.768Z,48.53
2018-08-07T06:11:14.085Z,48.70
2018-08-07T06:13:47.454Z,49.49
2018-08-07T06:16:20.809Z,48.15
2018-08-07T06:18:54.212Z,48.48
2018-08-07T06:21:27.535Z,46.94
2018-08-07T06:24:00.897Z,49.63
2018-08-07T06:26:34.195Z,46.54
2018-08-07T06:29:07.623Z,46.96
2018-08-07T06:31:40.996Z,44.97
2018-08-07T06:34:14.325Z,46.29
2018-08-07T06:36:47.630Z,45.08
2018-08-07T06:39:20.945Z,44.97
2018-08-07T06:41:54.247Z,43.91
2018-08-07T06:44:27.585Z,43.82
2018-08-07T06:47:00.975Z,46.19
2018-08-07T06:49:34.304Z,44.65
2018-08-07T06:52:07.685Z,43.25
2018-08-07T06:54:41.008Z,41.94
2018-08-07T06:57:14.367Z,42.74
2018-08-07T06:59:47.695Z,42.91
2018-08-07T07:02:21.017Z,41.97
2018-08-07T07:04:54.335Z,39.54
2018-08-07T07:07:27.664Z,41.41
2018-08-07T07:10:00.985Z,39.26
2018-08-07T07:12:34.323Z,39.98
2018-08-07T07:15:08.995Z,38.74
2018-08-07T07:17:43.397Z,37.61
2018-08-07T07:20:17.837Z,38.01
2018-08-07T07:22:51.155Z,34.45
2018-08-07T07:25:24.485Z,36.38
2018-08-07T07:27:57.769Z,36.25
2018-08-07T07:30:31.076Z,36.13
2018-08-07T07:33:04.554Z,35.54
2018-08-07T07:35:37.905Z,36.27
2018-08-07T07:38:11.218Z,37.81
2018-08-07T07:40:44.594Z,36.41
2018-08-07T07:43:17.869Z,35.29
2018-08-07T07:45:51.190Z,34.33
2018-08-07T07:48:24.528Z,34.74
2018-08-07T07:50:57.850Z,35.87
2018-08-07T07:53:31.186Z,35.97
2018-08-07T07:56:04.580Z,35.19
2018-08-07T07:58:38.082Z,32.80
2018-08-07T08:01:11.438Z,32.35
2018-08-07T08:03:44.742Z,33.53
2018-08-07T08:06:18.064Z,31.76
2018-08-07T08:08:51.376Z,33.52
2018-08-07T08:11:24.725Z,31.93
2018-08-07T08:13:58.029Z,30.90
2018-08-07T08:16:31.416Z,29.83
2018-08-07T08:19:04.785Z,29.88
2018-08-07T08:21:38.213Z,30.63
2018-08-07T08:24:11.557Z,28.76
2018-08-07T08:26:44.897Z,28.59
2018-08-07T08:29:18.393Z,27.84
2018-08-07T08:31:51.637Z,27.95
2018-08-07T08:34:27.023Z,29.07
2018-08-07T08:37:00.344Z,27.44
2018-08-07T08:39:33.653Z,28.63
2018-08-07T08:42:07.157Z,28.21
2018-08-07T08:44:40.488Z,27.41
2018-08-07T08:47:13.851Z,28.68
2018-08-07T08:49:47.157Z,27.69
2018-08-07T08:52:20.537Z,27.36
2018-08-07T08:54:53.867Z,28.83
2018-08-07T08:57:27.209Z,30.15
2018-08-07T09:00:00.748Z,27.83
2018-08-07T09:02:34.092Z,24.79
2018-08-07T09:05:09.233Z,21.45
2018-08-07T09:07:43.029Z,20.02
2018-08-07T09:10:21.651Z,21.75
2018-08-07T09:12:55.619Z,21.99
2018-08-07T09:15:29.582Z,23.75
2018-08-07T09:18:02.915Z,21.68
2018-08-07T09:20:36.316Z,23.44
2018-08-07T09:23:09.657Z,21.32
2018-08-07T09:25:43.122Z,17.95
2018-08-07T09:28:16.414Z,18.24
2018-08-07T09:30:49.768Z,16.54
2018-08-07T09:33:23.514Z,16.89
2018-08-07T09:35:56.901Z,20.08
2018-08-07T09:38:30.237Z,19.62
2018-08-07T09:41:03.912Z,20.01
2018-08-07T09:43:37.242Z,20.91
2018-08-07T09:46:10.612Z,21.40
2018-08-07T09:48:43.987Z,21.19
2018-08-07T09:51:17.325Z,21.34
2018-08-07T09:53:50.676Z,21.53
2018-08-07T09:56:24.017Z,22.52
2018-08-07T09:58:57.389Z,21.64
2018-08-07T10:01:31.681Z,20.64
2018-08-07T10:04:05.041Z,21.38
2018-08-07T10:06:38.349Z,20.48
2018-08-07T10:09:11.691Z,21.59
2018-08-07T10:11:45.291Z,22.01
2018-08-07T10:14:18.702Z,21.43
2018-08-07T10:16:52.272Z,20.41
2018-08-07T10:19:26.823Z,20.23
2018-08-07T10:22:00.376Z,20.27
2018-08-07T10:24:34.056Z,21.15
2018-08-07T10:27:07.396Z,22.62
2018-08-07T10:29:40.723Z,23.92
2018-08-07T10:32:14.071Z,22.88
2018-08-07T10:34:47.435Z,22.20
2018-08-07T10:37:20.766Z,21.32
2018-08-07T10:39:54.145Z,21.82
2018-08-07T10:42:27.504Z,22.87
2018-08-07T10:45:29.846Z,21.30
2018-08-07T10:48:03.282Z,22.40
2018-08-07T10:50:36.718Z,22.20
2018-08-07T10:53:10.176Z,23.03
2018-08-07T10:55:43.620Z,20.73
2018-08-07T10:58:17.065Z,20.80
2018-08-07T11:00:50.532Z,21.89
2018-08-07T11:03:23.948Z,24.07
2018-08-07T11:05:57.408Z,23.94
2018-08-07T11:08:30.867Z,22.56
2018-08-07T11:11:04.283Z,23.14
2018-08-07T11:13:37.790Z,21.61
2018-08-07T11:16:11.186Z,22.05
2018-08-07T11:18:44.635Z,22.29
2018-08-07T11:21:18.069Z,22.05
2018-08-07T11:23:51.483Z,21.70
2018-08-07T11:26:24.877Z,21.00
2018-08-07T11:28:58.311Z,22.72
2018-08-07T11:31:31.778Z,23.02
2018-08-07T11:34:05.197Z,20.76
2018-08-07T11:36:38.632Z,20.17
2018-08-07T11:39:12.104Z,19.85
2018-08-07T11:41:45.504Z,20.69
2018-08-07T11:44:18.910Z,24.64
2018-08-07T11:46:52.361Z,21.87
2018-08-07T11:49:25.799Z,22.01
2018-08-07T11:51:59.213Z,21.80
2018-08-07T11:54:32.727Z,21.55
2018-08-07T11:57:06.756Z,20.36
2018-08-07T11:59:40.244Z,19.12
2018-08-07T12:02:14.638Z,18.18
2018-08-07T12:04:48.933Z,20.88
2018-08-07T12:07:22.344Z,20.19
2018-08-07T12:09:55.784Z,19.53
2018-08-07T12:12:29.454Z,19.52
2018-08-07T12:15:02.915Z,20.17
2018-08-07T12:17:36.691Z,21.03
2018-08-07T12:20:10.108Z,19.98
2018-08-07T12:22:43.555Z,19.68
2018-08-07T12:25:17.749Z,20.51
2018-08-07T12:27:51.226Z,18.43
2018-08-07T12:30:26.877Z,20.51
2018-08-07T12:33:00.715Z,19.14
2018-08-07T12:35:34.181Z,20.30
2018-08-07T12:38:07.671Z,18.82
2018-08-07T12:40:41.113Z,21.36
2018-08-07T12:43:14.518Z,20.42
2018-08-07T12:45:47.928Z,21.42
2018-08-07T12:48:21.350Z,21.93
2018-08-07T12:50:54.764Z,21.29
2018-08-07T12:53:28.224Z,22.65
2018-08-07T12:56:01.671Z,20.23
2018-08-07T12:58:35.114Z,18.91
2018-08-07T13:01:08.549Z,21.97
2018-08-07T13:03:42.002Z,22.20
2018-08-07T13:06:15.408Z,22.14
2018-08-07T13:08:48.820Z,21.21
2018-08-07T13:11:22.235Z,21.88
2018-08-07T13:13:56.034Z,22.04
2018-08-07T13:16:29.456Z,21.93
2018-08-07T13:19:02.879Z,21.60
2018-08-07T13:21:36.306Z,22.22
2018-08-07T13:24:09.763Z,22.41
2018-08-07T13:26:43.199Z,20.21
2018-08-07T13:29:16.653Z,21.66
2018-08-07T13:31:50.045Z,20.63
2018-08-07T13:34:23.543Z,20.88
2018-08-07T13:36:56.990Z,21.87
2018-08-07T13:39:30.458Z,19.84
2018-08-07T13:42:03.877Z,20.09
2018-08-07T13:44:37.365Z,20.47
2018-08-07T13:47:10.860Z,20.35
2018-08-07T13:49:44.358Z,18.93
2018-08-07T13:52:17.753Z,19.16
2018-08-07T13:54:51.190Z,20.43
2018-08-07T13:57:24.578Z,20.96
2018-08-07T13:59:57.986Z,21.54
2018-08-07T14:02:31.371Z,21.87
2018-08-07T14:05:05.171Z,21.72
2018-08-07T14:07:38.571Z,21.56
2018-08-07T14:10:13.138Z,21.79
2018-08-07T14:12:46.584Z,23.49
2018-08-07T14:15:20.871Z,21.60
2018-08-07T14:17:54.252Z,20.85
2018-08-07T14:20:27.712Z,20.22
2018-08-07T14:23:01.147Z,19.28
2018-08-07T14:25:34.551Z,20.05
2018-08-07T14:28:07.973Z,19.72
2018-08-07T14:30:41.373Z,19.64
2018-08-07T14:33:14.758Z,20.61
2018-08-07T14:35:48.205Z,19.47
2018-08-07T14:38:21.617Z,19.06
2018-08-07T14:40:55.080Z,19.22
2018-08-07T14:43:28.515Z,19.84
2018-08-07T14:46:01.928Z,19.48
2018-08-07T14:48:35.312Z,20.17
2018-08-07T14:51:08.721Z,19.24
2018-08-07T14:53:42.108Z,20.48
2018-08-07T14:56:15.512Z,19.17
2018-08-07T14:58:48.955Z,20.23
2018-08-07T15:01:22.384Z,18.46
2018-08-07T15:03:55.947Z,18.72
2018-08-07T15:06:29.451Z,17.40
2018-08-07T15:09:02.820Z,18.43
2018-08-07T15:11:36.240Z,17.62
2018-08-07T15:14:10.599Z,17.09
2018-08-07T15:16:44.116Z,18.25
2018-08-07T15:19:17.476Z,20.21
2018-08-07T15:21:50.928Z,19.88
2018-08-07T15:24:24.319Z,18.02
2018-08-07T15:26:57.780Z,17.36
2018-08-07T15:29:31.237Z,18.94
2018-08-07T15:32:04.671Z,18.60
2018-08-07T15:34:38.099Z,17.69
2018-08-07T15:37:11.560Z,18.53
2018-08-07T15:39:44.970Z,17.05
2018-08-07T15:42:18.390Z,18.32
2018-08-07T15:44:51.798Z,17.98
2018-08-07T15:47:25.272Z,19.46
2018-08-07T15:49:58.715Z,19.50
2018-08-07T15:52:32.127Z,19.16
2018-08-07T15:55:05.613Z,19.52
2018-08-07T15:57:39.081Z,20.37
2018-08-07T16:00:19.427Z,19.54
2018-08-07T16:02:53.129Z,19.87
2018-08-07T16:05:26.569Z,19.91
2018-08-07T16:08:00.044Z,19.14
2018-08-07T16:10:33.526Z,21.00
2018-08-07T16:13:06.936Z,21.39
2018-08-07T16:15:40.383Z,20.87
2018-08-07T16:18:13.496Z,20.09
2018-08-07T16:20:47.384Z,20.67
2018-08-07T16:23:20.935Z,19.43
2018-08-07T16:25:54.829Z,20.04
2018-08-07T16:28:28.275Z,20.67
2018-08-07T16:31:02.196Z,19.66
2018-08-07T16:33:35.727Z,19.53
2018-08-07T16:36:09.148Z,19.85
2018-08-07T16:38:42.835Z,19.92
2018-08-07T16:41:16.294Z,19.85
2018-08-07T16:43:49.743Z,20.37
2018-08-07T16:46:23.187Z,20.42
2018-08-07T16:48:58.837Z,21.22
2018-08-07T16:51:32.895Z,20.38
2018-08-07T16:54:06.651Z,20.34
2018-08-07T16:56:40.079Z,20.75
2018-08-07T16:59:13.527Z,20.92
2018-08-07T17:01:47.144Z,20.42
2018-08-07T17:04:20.576Z,21.02
2018-08-07T17:06:53.972Z,20.49
2018-08-07T17:09:27.498Z,19.97
2018-08-07T17:12:00.944Z,20.12
2018-08-07T17:14:34.331Z,22.27
2018-08-07T17:17:07.801Z,21.89
2018-08-07T17:19:41.711Z,22.77
2018-08-07T17:22:15.282Z,23.44
2018-08-07T17:24:49.108Z,23.27
2018-08-07T17:27:22.592Z,23.98
2018-08-07T17:29:55.990Z,23.49
2018-08-07T17:32:29.404Z,23.28
2018-08-07T17:35:02.781Z,22.99
2018-08-07T17:37:36.243Z,23.06
2018-08-07T17:40:11.479Z,22.32
2018-08-07T17:42:44.928Z,22.27
2018-08-07T17:45:18.358Z,22.48
2018-08-07T17:47:51.800Z,23.49
2018-08-07T17:50:26.279Z,22.59
2018-08-07T17:53:00.352Z,22.62
2018-08-07T17:55:33.769Z,22.70
2018-08-07T17:58:07.226Z,23.27
2018-08-07T18:00:40.659Z,23.85
2018-08-07T18:03:14.089Z,23.36
2018-08-07T18:05:47.493Z,23.70
2018-08-07T18:08:21.022Z,23.44
2018-08-07T18:10:54.400Z,23.68
2018-08-07T18:13:27.872Z,23.54
2018-08-07T18:16:01.283Z,23.21
2018-08-07T18:18:34.760Z,23.47
2018-08-07T18:21:08.176Z,23.61
2018-08-07T18:23:43.085Z,23.95
2018-08-07T18:26:16.584Z,25.15
2018-08-07T18:28:50.008Z,26.33
2018-08-07T18:31:23.436Z,25.77
2018-08-07T18:33:56.871Z,26.40
2018-08-07T18:36:30.287Z,27.17
2018-08-07T18:39:04.410Z,25.78
2018-08-07T18:41:38.397Z,26.78
2018-08-07T18:44:11.851Z,27.80
2018-08-07T18:46:46.069Z,28.01
2018-08-07T18:49:19.468Z,28.62
2018-08-07T18:51:52.855Z,28.07
2018-08-07T18:54:26.273Z,28.81
2018-08-07T18:56:59.666Z,30.27
2018-08-07T18:59:33.894Z,28.86
2018-08-07T19:02:07.936Z,29.55
2018-08-07T19:04:41.335Z,29.91
2018-08-07T19:07:14.806Z,30.34
2018-08-07T19:09:48.225Z,30.83
2018-08-07T19:12:21.643Z,31.19
2018-08-07T19:14:55.058Z,31.06
2018-08-07T19:17:28.524Z,31.31
2018-08-07T19:20:02.012Z,31.42
2018-08-07T19:22:35.440Z,31.77
2018-08-07T19:25:09.812Z,32.04
2018-08-07T19:27:43.439Z,32.57
2018-08-07T19:30:18.438Z,34.36
2018-08-07T19:32:51.888Z,34.13
2018-08-07T19:35:25.296Z,35.00
2018-08-07T19:37:58.763Z,35.19
2018-08-07T19:40:32.174Z,35.86
2018-08-07T19:43:06.033Z,36.25
2018-08-07T19:45:39.462Z,35.55
2018-08-07T19:48:12.943Z,35.29
2018-08-07T19:50:46.330Z,34.87
2018-08-07T19:53:19.748Z,36.29
2018-08-07T19:55:53.186Z,36.72
2018-08-07T19:58:26.714Z,37.38
2018-08-07T20:01:00.584Z,39.09
2018-08-07T20:03:34.116Z,38.81
2018-08-07T20:06:07.583Z,39.95
2018-08-07T20:08:40.970Z,39.32
2018-08-07T20:11:14.364Z,39.56
2018-08-07T20:13:47.840Z,41.12
2018-08-07T20:16:21.240Z,39.59
2018-08-07T20:18:54.642Z,40.41
2018-08-07T20:21:28.028Z,40.01
2018-08-07T20:24:01.477Z,40.13
2018-08-07T20:26:34.928Z,40.51
2018-08-07T20:29:08.374Z,40.38
2018-08-07T20:31:41.769Z,40.95
2018-08-07T20:34:15.184Z,40.91
2018-08-07T20:36:48.573Z,41.08
2018-08-07T20:39:21.960Z,41.18
2018-08-07T20:41:55.358Z,41.85
2018-08-07T20:44:28.788Z,42.45
2018-08-07T20:47:02.191Z,42.77
2018-08-07T20:49:35.635Z,43.65
2018-08-07T20:52:09.025Z,43.54
2018-08-07T20:54:42.452Z,47.34
2018-08-07T20:57:15.854Z,45.57
2018-08-07T20:59:49.264Z,44.31
2018-08-07T21:02:22.681Z,44.15
2018-08-07T21:04:56.084Z,44.63
2018-08-07T21:07:29.621Z,44.74
2018-08-07T21:10:03.293Z,44.71
2018-08-07T21:12:36.883Z,44.88
2018-08-07T21:15:11.131Z,44.73
2018-08-07T21:17:44.496Z,44.82
2018-08-07T21:20:19.496Z,44.75
2018-08-07T21:22:52.892Z,44.63
2018-08-07T21:25:26.341Z,44.83
2018-08-07T21:28:00.595Z,44.44
2018-08-07T21:30:34.048Z,45.62
2018-08-07T21:33:07.547Z,44.99
2018-08-07T21:35:41.020Z,45.16
2018-08-07T21:38:14.387Z,45.28
2018-08-07T21:40:47.780Z,46.33
2018-08-07T21:43:21.183Z,46.84
2018-08-07T21:45:54.592Z,46.41
2018-08-07T21:48:27.984Z,48.48
2018-08-07T21:51:01.409Z,46.71
2018-08-07T21:53:34.813Z,46.34
2018-08-07T21:56:08.234Z,46.56
2018-08-07T21:58:41.695Z,46.08
2018-08-07T22:01:15.110Z,47.42
2018-08-07T22:03:48.567Z,46.76
2018-08-07T22:06:21.935Z,46.38
2018-08-07T22:08:55.365Z,46.87
2018-08-07T22:11:28.816Z,46.80
2018-08-07T22:14:02.247Z,46.72
2018-08-07T22:16:35.771Z,46.64
2018-08-07T22:19:09.184Z,47.69
2018-08-07T22:21:42.616Z,46.86
2018-08-07T22:24:15.995Z,48.58
2018-08-07T22:26:49.391Z,47.42
2018-08-07T22:29:22.759Z,47.41
2018-08-07T22:31:56.155Z,47.61
2018-08-07T22:34:29.594Z,46.64
2018-08-07T22:37:03.099Z,47.85
2018-08-07T22:39:36.681Z,47.04
2018-08-07T22:42:10.278Z,47.51
2018-08-07T22:44:43.821Z,47.00
2018-08-07T22:47:17.353Z,50.33
2018-08-07T22:49:50.910Z,49.67
2018-08-07T22:52:24.527Z,48.38
2018-08-07T22:54:57.972Z,50.69
2018-08-07T22:57:31.430Z,48.70
2018-08-07T23:00:08.330Z,49.85
2018-08-07T23:02:41.835Z,49.92
2018-08-07T23:05:16.218Z,51.10
2018-08-07T23:07:49.650Z,49.68
2018-08-07T23:10:23.034Z,49.58
2018-08-07T23:12:56.494Z,49.13
2018-08-07T23:15:30.298Z,49.28
2018-08-07T23:18:03.684Z,49.66
2018-08-07T23:20:37.099Z,49.35
2018-08-07T23:23:10.651Z,50.07
2018-08-07T23:25:44.042Z,49.91
2018-08-07T23:28:17.439Z,49.66
2018-08-07T23:30:50.886Z,50.69
2018-08-07T23:33:24.246Z,50.09
2018-08-07T23:38:30.036Z,50.85
2018-08-07T23:41:03.416Z,51.38
2018-08-07T23:43:36.841Z,50.84
2018-08-07T23:46:10.219Z,49.84
2018-08-07T23:48:43.599Z,49.95
2018-08-07T23:51:17.054Z,50.12
2018-08-07T23:53:50.471Z,49.46
2018-08-07T23:56:23.895Z,51.66
2018-08-07T23:58:57.315Z,50.59
